Terminal Aerodrome Forecast
Issued by NWS

Home | Current Version | Previous Version | Text Only | Print | Product List | Glossary On
Versions: 1 2 3 4 5 6 7 8 9 10 11 12 13
000
FTUS45 KABQ 222300
TAFTCC
TAF
KTCC 222331Z 2300/2324 17012KT 5SM -RA SCT030 BKN050
      TEMPO 2300/2302 22013G22KT 3SM RA BKN030 OVC050
     FM230400 18010KT P6SM VCSH SCT030 BKN045
     FM230600 21009KT P6SM SCT015 BKN030
     FM231500 21012KT P6SM SCT035 BKN050
     FM231900 22015KT P6SM SCT060 BKN100=

USA.gov is the U.S. government's official web portal to all federal, state and local government web resources and services.